KFEP

Albertus Airport

Freeport, Illinois, USA
METAR KFEP 140115Z AUTO 06003KT 3SM BR OVC007 02/02 A3010 RMK AO2 T00210021
Observed Flight Rules
Dec-14 @ 01:15 UTC (43 minutes ago) Instrument Flight Rules
Wind Visibility Clouds Conditions
60° at 3 knots 3 miles
  • Overcast at 700' AGL
  • Mist
Temperatures Readings
Current 2°C / 36°F
Dewpoint 2°C / 36°F
Humidity 100%
Altimeter 30.1" Hg
Pressure 1019 hPa
Elevation 262
METAR KFEP 140115Z AUTO 06003KT 3SM BR OVC007 02/02 A3010 RMK AO2 T00210021
Observed Flight Rules
Dec-14 @ 01:15 UTC
(43 minutes ago)
IFR
Wind Visibility
60° at 3 knots 3 miles
Clouds
  • Overcast at 700' AGL
Conditions
  • Mist
Temperature Dewpoint
2°C / 36°F 2°C / 36°F
Humidity Altimeter Pressure
100% 30.1" Hg 1019 hPa